createdAt,value
2022-11-24T00:00:21.627Z,17.86
2022-11-24T00:02:52.685Z,17.84
2022-11-24T00:05:21.183Z,17.79
2022-11-24T00:07:49.650Z,17.70
2022-11-24T00:10:21.406Z,17.62
2022-11-24T00:12:52.676Z,17.58
2022-11-24T00:15:20.935Z,17.57
2022-11-24T00:17:49.230Z,17.53
2022-11-24T00:20:19.901Z,17.53
2022-11-24T00:22:48.426Z,17.50
2022-11-24T00:25:19.438Z,17.43
2022-11-24T00:27:50.826Z,17.37
2022-11-24T00:30:19.257Z,17.34
2022-11-24T00:32:47.612Z,17.32
2022-11-24T00:35:25.066Z,17.29
2022-11-24T00:37:54.852Z,17.24
2022-11-24T00:40:23.237Z,17.17
2022-11-24T00:42:51.576Z,17.11
2022-11-24T00:45:23.455Z,17.01
2022-11-24T00:47:51.751Z,16.93
2022-11-24T00:50:21.060Z,16.84
2022-11-24T00:52:49.381Z,16.78
2022-11-24T00:55:17.910Z,16.71
2022-11-24T00:57:46.231Z,16.65
2022-11-24T01:00:15.316Z,16.55
2022-11-24T01:02:46.793Z,16.46
2022-11-24T01:05:17.553Z,16.38
2022-11-24T01:07:45.870Z,16.29
2022-11-24T01:10:18.411Z,16.19
2022-11-24T01:12:46.756Z,16.07
2022-11-24T01:15:17.246Z,15.92
2022-11-24T01:17:45.575Z,15.79
2022-11-24T01:20:17.344Z,15.66
2022-11-24T01:22:48.611Z,15.53
2022-11-24T01:25:17.850Z,15.42
2022-11-24T01:27:48.395Z,15.33
2022-11-24T01:30:16.730Z,15.22
2022-11-24T01:32:50.430Z,15.13
2022-11-24T01:35:21.925Z,15.02
2022-11-24T01:37:52.392Z,14.92
2022-11-24T01:40:20.689Z,14.85
2022-11-24T01:42:51.532Z,14.74
2022-11-24T01:45:33.420Z,14.64
2022-11-24T01:48:08.584Z,14.56
2022-11-24T01:50:37.856Z,14.47
2022-11-24T01:53:06.702Z,14.37
2022-11-24T01:55:38.180Z,14.30
2022-11-24T01:58:13.731Z,14.25
2022-11-24T02:00:47.623Z,14.19
2022-11-24T02:03:20.103Z,14.14
2022-11-24T02:05:58.953Z,14.07
2022-11-24T02:08:31.084Z,14.01
2022-11-24T02:10:59.615Z,13.96
2022-11-24T02:13:28.070Z,13.89
2022-11-24T02:15:59.362Z,13.80
2022-11-24T02:18:37.699Z,13.74
2022-11-24T02:21:09.548Z,13.69
2022-11-24T02:23:37.872Z,13.65
2022-11-24T02:26:56.900Z,13.56
2022-11-24T02:29:25.224Z,13.50
2022-11-24T02:32:00.585Z,13.46
2022-11-24T02:34:29.226Z,13.41
2022-11-24T02:36:57.544Z,13.37
2022-11-24T02:39:26.175Z,13.34
2022-11-24T02:42:07.298Z,13.28
2022-11-24T02:44:40.669Z,13.19
2022-11-24T02:47:19.988Z,13.14
2022-11-24T02:49:48.259Z,13.07
2022-11-24T02:52:16.901Z,13.02
2022-11-24T02:54:45.349Z,12.95
2022-11-24T02:57:14.462Z,12.91
2022-11-24T02:59:45.206Z,12.85
2022-11-24T03:02:16.420Z,12.78
2022-11-24T03:04:47.618Z,12.71
2022-11-24T03:07:16.336Z,12.67
2022-11-24T03:09:44.636Z,12.66
2022-11-24T03:12:12.901Z,12.60
2022-11-24T03:14:43.552Z,12.53
2022-11-24T03:17:11.925Z,12.46
2022-11-24T03:19:41.486Z,12.40
2022-11-24T03:22:09.865Z,12.34
2022-11-24T03:24:39.183Z,12.30
2022-11-24T03:27:10.506Z,12.30
2022-11-24T03:29:38.935Z,12.28
2022-11-24T03:32:07.305Z,12.26
2022-11-24T03:34:38.016Z,12.23
2022-11-24T03:37:10.871Z,12.20
2022-11-24T03:39:41.856Z,12.17
2022-11-24T03:42:10.351Z,12.11
2022-11-24T03:44:38.620Z,12.02
2022-11-24T03:47:08.445Z,12.01
2022-11-24T03:49:37.551Z,11.96
2022-11-24T03:52:08.318Z,11.93
2022-11-24T03:54:40.226Z,11.89
2022-11-24T03:57:12.057Z,11.87
2022-11-24T03:59:43.461Z,11.84
2022-11-24T04:02:14.582Z,11.77
2022-11-24T04:04:49.631Z,11.74
2022-11-24T04:07:20.300Z,11.71
2022-11-24T04:09:50.751Z,11.69
2022-11-24T04:12:40.102Z,11.62
2022-11-24T04:15:08.901Z,11.55
2022-11-24T04:17:37.506Z,11.51
2022-11-24T04:20:06.633Z,11.47
2022-11-24T04:22:42.182Z,11.42
2022-11-24T04:25:11.582Z,11.37
2022-11-24T04:27:45.938Z,11.31
2022-11-24T04:30:17.379Z,11.31
2022-11-24T04:32:51.523Z,11.27
2022-11-24T04:35:23.407Z,11.25
2022-11-24T04:37:51.908Z,11.23
2022-11-24T04:40:25.647Z,11.20
2022-11-24T04:42:57.858Z,11.21
2022-11-24T04:45:29.529Z,11.20
2022-11-24T04:47:57.848Z,11.15
2022-11-24T04:50:26.206Z,11.12
2022-11-24T04:53:00.246Z,11.09
2022-11-24T04:55:28.592Z,10.99
2022-11-24T04:57:56.906Z,10.89
2022-11-24T05:00:32.689Z,10.84
2022-11-24T05:03:01.056Z,10.80
2022-11-24T05:05:32.216Z,10.79
2022-11-24T05:08:03.315Z,10.76
2022-11-24T05:10:44.116Z,10.72
2022-11-24T05:13:16.269Z,10.74
2022-11-24T05:15:50.197Z,10.71
2022-11-24T05:18:22.427Z,10.64
2022-11-24T05:20:55.168Z,10.60
2022-11-24T05:23:25.937Z,10.59
2022-11-24T05:26:05.662Z,10.57
2022-11-24T05:28:37.062Z,10.51
2022-11-24T05:31:10.900Z,10.44
2022-11-24T05:33:48.422Z,10.43
2022-11-24T05:36:35.141Z,10.42
2022-11-24T05:39:03.464Z,10.42
2022-11-24T05:41:34.127Z,10.38
2022-11-24T05:44:07.433Z,10.34
2022-11-24T05:46:38.389Z,10.26
2022-11-24T05:49:09.496Z,10.20
2022-11-24T05:51:37.956Z,10.19
2022-11-24T05:54:08.349Z,10.21
2022-11-24T05:56:39.621Z,10.21
2022-11-24T05:59:10.006Z,10.21
2022-11-24T06:01:38.803Z,10.14
2022-11-24T06:04:12.876Z,10.10
2022-11-24T06:06:44.211Z,10.08
2022-11-24T06:09:14.231Z,10.01
2022-11-24T06:11:42.631Z,9.99
2022-11-24T06:14:13.721Z,9.96
2022-11-24T06:16:43.952Z,9.90
2022-11-24T06:19:17.411Z,9.86
2022-11-24T06:21:49.346Z,9.85
2022-11-24T06:24:19.370Z,9.82
2022-11-24T06:26:50.661Z,9.81
2022-11-24T06:29:21.830Z,9.80
2022-11-24T06:31:53.209Z,9.78
2022-11-24T06:34:24.281Z,9.72
2022-11-24T06:36:57.349Z,9.67
2022-11-24T06:39:31.417Z,9.60
2022-11-24T06:41:59.945Z,9.54
2022-11-24T06:44:28.350Z,9.51
2022-11-24T06:46:59.249Z,9.44
2022-11-24T06:49:37.220Z,9.39
2022-11-24T06:52:08.471Z,9.39
2022-11-24T06:54:44.729Z,9.37
2022-11-24T06:57:20.196Z,9.36
2022-11-24T06:59:48.464Z,9.35
2022-11-24T07:02:20.001Z,9.37
2022-11-24T07:04:48.292Z,9.34
2022-11-24T07:07:21.875Z,9.35
2022-11-24T07:09:54.440Z,9.31
2022-11-24T07:12:27.776Z,9.26
2022-11-24T07:15:03.481Z,9.24
2022-11-24T07:17:38.983Z,9.15
2022-11-24T07:20:09.166Z,9.10
2022-11-24T07:22:37.541Z,9.13
2022-11-24T07:25:11.149Z,9.13
2022-11-24T07:27:45.061Z,9.12
2022-11-24T07:30:16.507Z,9.09
2022-11-24T07:32:44.766Z,9.04
2022-11-24T07:35:18.786Z,9.01
2022-11-24T07:37:49.282Z,8.99
2022-11-24T07:40:20.902Z,8.95
2022-11-24T07:42:49.222Z,8.87
2022-11-24T07:45:23.590Z,8.87
2022-11-24T07:47:54.925Z,8.90
2022-11-24T07:50:28.092Z,8.87
2022-11-24T07:53:06.666Z,8.82
2022-11-24T07:55:48.157Z,8.80
2022-11-24T07:58:16.752Z,8.71
2022-11-24T08:00:49.222Z,8.63
2022-11-24T08:03:31.438Z,8.58
2022-11-24T08:09:07.967Z,8.59
2022-11-24T08:11:41.725Z,8.55
2022-11-24T08:14:12.396Z,8.49
2022-11-24T08:16:46.512Z,8.43
2022-11-24T08:19:27.171Z,8.42
2022-11-24T08:22:03.910Z,8.40
2022-11-24T08:24:42.572Z,8.33
2022-11-24T08:27:10.886Z,8.33
2022-11-24T08:29:47.945Z,8.39
2022-11-24T08:32:21.927Z,8.41
2022-11-24T08:35:19.679Z,8.40
2022-11-24T08:37:54.208Z,8.39
2022-11-24T08:40:28.464Z,8.37
2022-11-24T08:43:01.349Z,8.40
2022-11-24T08:45:35.466Z,8.38
2022-11-24T08:48:24.838Z,8.35
2022-11-24T08:50:55.344Z,8.30
2022-11-24T08:53:34.741Z,8.23
2022-11-24T08:56:08.881Z,8.17
2022-11-24T08:58:48.744Z,8.16
2022-11-24T09:01:20.831Z,8.15
2022-11-24T09:03:55.377Z,8.15
2022-11-24T09:06:43.273Z,8.14
2022-11-24T09:09:15.402Z,8.10
2022-11-24T09:11:49.071Z,8.09
2022-11-24T09:14:22.451Z,8.08
2022-11-24T09:16:55.630Z,8.08
2022-11-24T09:19:26.991Z,8.06
2022-11-24T09:22:05.218Z,8.04
2022-11-24T09:24:36.499Z,8.03
2022-11-24T09:27:12.348Z,7.94
2022-11-24T09:29:40.666Z,7.88
2022-11-24T09:32:15.426Z,7.87
2022-11-24T09:34:43.287Z,7.86
2022-11-24T09:37:11.627Z,7.88
2022-11-24T09:39:45.675Z,7.85
2022-11-24T09:42:59.942Z,7.89
2022-11-24T09:46:05.546Z,7.88
2022-11-24T09:48:51.962Z,7.82
2022-11-24T09:51:35.779Z,7.77
2022-11-24T09:54:44.284Z,7.75
2022-11-24T09:57:38.982Z,7.75
2022-11-24T10:00:16.904Z,7.72
2022-11-24T10:03:00.165Z,7.68
2022-11-24T10:05:38.326Z,7.74
2022-11-24T10:08:35.542Z,7.76
2022-11-24T10:11:16.114Z,7.76
2022-11-24T10:14:02.511Z,7.73
2022-11-24T10:16:46.499Z,7.67
2022-11-24T10:19:47.996Z,7.65
2022-11-24T10:22:50.339Z,7.63
2022-11-24T10:25:44.977Z,7.63
2022-11-24T10:28:20.046Z,7.63
2022-11-24T10:31:04.141Z,7.60
2022-11-24T10:33:52.473Z,7.60
2022-11-24T10:36:48.787Z,7.56
2022-11-24T10:39:28.268Z,7.56
2022-11-24T10:42:28.763Z,7.51
2022-11-24T10:45:24.546Z,7.50
2022-11-24T10:48:05.067Z,7.49
2022-11-24T10:50:42.501Z,7.39
2022-11-24T10:53:28.736Z,7.34
2022-11-24T10:55:57.077Z,7.30
2022-11-24T10:58:40.822Z,7.30
2022-11-24T11:01:17.863Z,7.22
2022-11-24T11:04:03.016Z,7.18
2022-11-24T11:06:51.462Z,7.14
2022-11-24T11:09:31.731Z,7.13
2022-11-24T11:12:36.309Z,7.15
2022-11-24T11:15:28.402Z,7.19
2022-11-24T11:18:20.835Z,7.17
2022-11-24T11:21:05.808Z,7.18
2022-11-24T11:23:45.862Z,7.18
2022-11-24T11:26:34.662Z,7.18
2022-11-24T11:35:28.737Z,7.14
2022-11-24T11:38:09.984Z,7.11
2022-11-24T11:40:50.472Z,7.06
2022-11-24T11:43:42.182Z,7.00
2022-11-24T11:46:35.865Z,6.96
2022-11-24T11:49:07.142Z,6.91
2022-11-24T11:52:21.106Z,6.92
2022-11-24T11:55:35.342Z,6.89
2022-11-24T11:58:21.084Z,6.88
2022-11-24T12:01:12.430Z,6.83
2022-11-24T12:03:52.843Z,6.79
2022-11-24T12:07:05.991Z,6.77
2022-11-24T12:10:02.374Z,6.78
2022-11-24T12:13:17.247Z,6.76
2022-11-24T12:16:03.503Z,6.82
2022-11-24T12:18:57.731Z,6.83
2022-11-24T12:21:45.261Z,6.84
2022-11-24T12:24:34.142Z,6.80
2022-11-24T12:27:23.593Z,6.79
2022-11-24T12:30:30.977Z,6.76
2022-11-24T12:33:39.992Z,6.71
2022-11-24T12:36:38.432Z,6.65
2022-11-24T12:39:27.143Z,6.59
2022-11-24T12:42:27.241Z,6.61
2022-11-24T12:45:45.971Z,6.64
2022-11-24T12:48:37.607Z,6.61
2022-11-24T12:51:21.365Z,6.59
2022-11-24T12:54:02.425Z,6.56
2022-11-24T12:56:49.035Z,6.54
2022-11-24T12:59:43.647Z,6.52
2022-11-24T13:02:56.610Z,6.51
2022-11-24T13:05:32.765Z,6.50
2022-11-24T13:08:09.383Z,6.49
2022-11-24T13:11:01.129Z,6.44
2022-11-24T13:13:51.371Z,6.41
2022-11-24T13:16:36.271Z,6.41
2022-11-24T13:19:23.822Z,6.39
2022-11-24T13:22:13.022Z,6.36
2022-11-24T13:24:49.223Z,6.35
2022-11-24T13:27:38.445Z,6.33
2022-11-24T13:30:43.300Z,6.28
2022-11-24T13:33:46.495Z,6.30
2022-11-24T13:36:27.220Z,6.31
2022-11-24T13:39:19.805Z,6.30
2022-11-24T13:44:48.203Z,6.29
2022-11-24T13:47:46.221Z,6.30
2022-11-24T13:50:24.109Z,6.28
2022-11-24T13:53:27.841Z,6.28
2022-11-24T13:56:23.940Z,6.27
2022-11-24T13:59:15.827Z,6.24
2022-11-24T14:02:05.207Z,6.23
2022-11-24T14:04:38.956Z,6.21
2022-11-24T14:07:18.050Z,6.20
2022-11-24T14:09:58.505Z,6.21
2022-11-24T14:12:36.297Z,6.16
2022-11-24T14:15:40.166Z,6.17
2022-11-24T14:18:43.726Z,6.18
2022-11-24T14:21:36.457Z,6.16
2022-11-24T14:24:27.755Z,6.20
2022-11-24T14:27:03.480Z,6.22
2022-11-24T14:32:31.746Z,6.19
2022-11-24T14:35:08.022Z,6.16
2022-11-24T14:37:42.576Z,6.16
2022-11-24T14:40:46.274Z,6.16
2022-11-24T14:43:35.708Z,6.16
2022-11-24T14:46:27.331Z,6.11
2022-11-24T14:49:27.905Z,6.07
2022-11-24T14:52:15.697Z,6.07
2022-11-24T14:55:07.548Z,6.09
2022-11-24T14:58:04.081Z,6.08
2022-11-24T15:00:48.562Z,6.10
2022-11-24T15:03:20.400Z,6.11
2022-11-24T15:06:04.627Z,6.14
2022-11-24T15:08:59.517Z,6.13
2022-11-24T15:11:52.096Z,6.06
2022-11-24T15:14:38.334Z,6.01
2022-11-24T15:17:10.536Z,6.05
2022-11-24T15:19:46.641Z,6.05
2022-11-24T15:22:40.101Z,6.08
2022-11-24T15:25:36.308Z,6.09
2022-11-24T15:28:17.640Z,6.11
2022-11-24T15:30:58.351Z,6.11
2022-11-24T15:33:38.011Z,6.19
2022-11-24T15:36:18.835Z,6.26
2022-11-24T15:38:55.340Z,6.30
2022-11-24T15:41:37.027Z,6.32
2022-11-24T15:44:11.905Z,6.35
2022-11-24T15:46:43.352Z,6.36
2022-11-24T15:49:20.687Z,6.40
2022-11-24T15:52:03.578Z,6.45
2022-11-24T15:54:40.666Z,6.50
2022-11-24T15:57:27.174Z,6.53
2022-11-24T16:00:21.847Z,6.57
2022-11-24T16:03:24.005Z,6.61
2022-11-24T16:08:47.766Z,6.81
2022-11-24T16:11:16.082Z,6.90
2022-11-24T16:13:52.392Z,6.96
2022-11-24T16:16:27.195Z,7.01
2022-11-24T16:19:17.791Z,7.06
2022-11-24T16:21:49.349Z,7.13
2022-11-24T16:24:34.783Z,7.19
2022-11-24T16:27:25.445Z,7.28
2022-11-24T16:30:16.449Z,7.41
2022-11-24T16:32:47.622Z,7.52
2022-11-24T16:35:22.686Z,7.62
2022-11-24T16:38:02.322Z,7.72
2022-11-24T16:40:35.539Z,7.81
2022-11-24T16:43:18.605Z,7.91
2022-11-24T16:46:23.769Z,8.01
2022-11-24T16:49:04.925Z,8.14
2022-11-24T16:51:35.588Z,8.26
2022-11-24T16:54:10.663Z,8.37
2022-11-24T16:56:47.047Z,8.49
2022-11-24T16:59:17.975Z,8.61
2022-11-24T17:01:52.059Z,8.74
2022-11-24T17:04:25.261Z,8.91
2022-11-24T17:07:11.833Z,9.04
2022-11-24T17:09:42.356Z,9.13
2022-11-24T17:12:10.647Z,9.21
2022-11-24T17:15:09.338Z,9.34
2022-11-24T17:18:01.175Z,9.42
2022-11-24T17:20:40.591Z,9.53
2022-11-24T17:23:11.264Z,9.63
2022-11-24T17:25:56.725Z,9.74
2022-11-24T17:28:31.533Z,9.93
2022-11-24T17:31:18.494Z,10.06
2022-11-24T17:33:48.711Z,10.16
2022-11-24T17:36:17.110Z,10.28
2022-11-24T17:38:51.774Z,10.38
2022-11-24T17:41:32.092Z,10.51
2022-11-24T17:44:08.227Z,10.60
2022-11-24T17:46:37.980Z,10.64
2022-11-24T17:49:09.357Z,10.70
2022-11-24T17:51:40.866Z,10.76
2022-11-24T17:54:39.153Z,10.82
2022-11-24T17:57:02.497Z,10.92
2022-11-24T17:59:33.552Z,11.05
2022-11-24T18:02:01.981Z,11.19
2022-11-24T18:04:37.661Z,11.32
2022-11-24T18:07:11.012Z,11.41
2022-11-24T18:09:42.647Z,11.56
2022-11-24T18:12:13.255Z,11.74
2022-11-24T18:14:48.986Z,11.88
2022-11-24T18:17:32.302Z,12.04
2022-11-24T18:20:04.668Z,12.17
2022-11-24T18:22:57.896Z,12.26
2022-11-24T18:25:21.406Z,12.31
2022-11-24T18:27:50.028Z,12.35
2022-11-24T18:30:18.822Z,12.36
2022-11-24T18:32:51.323Z,12.35
2022-11-24T18:35:19.630Z,12.39
2022-11-24T18:37:59.870Z,12.51
2022-11-24T18:40:28.216Z,12.59
2022-11-24T18:42:58.747Z,12.64
2022-11-24T18:45:28.344Z,12.74
2022-11-24T18:47:56.745Z,12.90
2022-11-24T18:50:28.771Z,13.03
2022-11-24T18:53:06.247Z,13.21
2022-11-24T18:55:34.666Z,13.38
2022-11-24T18:58:02.982Z,13.53
2022-11-24T19:00:34.341Z,13.65
2022-11-24T19:03:07.051Z,13.75
2022-11-24T19:05:36.259Z,13.80
2022-11-24T19:08:15.463Z,13.83
2022-11-24T19:10:49.154Z,13.92
2022-11-24T19:13:21.201Z,14.06
2022-11-24T19:15:50.506Z,14.15
2022-11-24T19:18:19.886Z,14.23
2022-11-24T19:20:49.231Z,14.32
2022-11-24T19:23:19.442Z,14.45
2022-11-24T19:25:47.745Z,14.53
2022-11-24T19:28:16.052Z,14.65
2022-11-24T19:30:46.986Z,14.80
2022-11-24T19:33:17.377Z,14.93
2022-11-24T19:35:50.586Z,15.01
2022-11-24T19:38:18.830Z,15.18
2022-11-24T19:40:49.627Z,15.32
2022-11-24T19:43:17.944Z,15.42
2022-11-24T19:45:46.279Z,15.49
2022-11-24T19:48:16.861Z,15.53
2022-11-24T19:50:48.015Z,15.55
2022-11-24T19:53:18.293Z,15.66
2022-11-24T19:55:46.545Z,15.83
2022-11-24T19:58:15.446Z,16.02
2022-11-24T20:00:43.791Z,16.22
2022-11-24T20:03:12.101Z,16.35
2022-11-24T20:05:40.425Z,16.40
2022-11-24T20:08:08.996Z,16.47
2022-11-24T20:10:38.862Z,16.61
2022-11-24T20:13:07.181Z,16.72
2022-11-24T20:15:35.465Z,16.82
2022-11-24T20:18:03.905Z,16.85
2022-11-24T20:20:33.709Z,16.94
2022-11-24T20:23:05.127Z,17.03
2022-11-24T20:25:41.046Z,17.17
2022-11-24T20:28:12.541Z,17.30
2022-11-24T20:30:43.649Z,17.44
2022-11-24T20:33:17.972Z,17.56
2022-11-24T20:35:46.250Z,17.74
2022-11-24T20:38:16.899Z,17.84
2022-11-24T20:40:45.181Z,17.93
2022-11-24T20:43:16.276Z,18.02
2022-11-24T20:45:50.033Z,18.10
2022-11-24T20:48:18.341Z,18.15
2022-11-24T20:50:51.407Z,18.25
2022-11-24T20:53:19.944Z,18.38
2022-11-24T20:55:48.216Z,18.48
2022-11-24T20:58:16.483Z,18.52
2022-11-24T21:00:44.747Z,18.57
2022-11-24T21:03:13.076Z,18.68
2022-11-24T21:05:43.190Z,18.80
2022-11-24T21:08:11.472Z,18.92
2022-11-24T21:10:39.736Z,18.98
2022-11-24T21:13:08.096Z,19.03
2022-11-24T21:15:36.326Z,19.06
2022-11-24T21:18:07.467Z,19.12
2022-11-24T21:20:35.937Z,19.16
2022-11-24T21:23:07.236Z,19.22
2022-11-24T21:25:35.632Z,19.27
2022-11-24T21:28:04.261Z,19.31
2022-11-24T21:30:32.646Z,19.36
2022-11-24T21:33:03.894Z,19.45
2022-11-24T21:35:36.907Z,19.57
2022-11-24T21:38:05.503Z,19.75
2022-11-24T21:40:33.826Z,19.91
2022-11-24T21:43:02.262Z,20.02
2022-11-24T21:45:38.819Z,20.11
2022-11-24T21:48:07.952Z,20.21
2022-11-24T21:50:36.261Z,20.31
2022-11-24T21:53:05.076Z,20.35
2022-11-24T21:55:33.391Z,20.39
2022-11-24T21:58:01.675Z,20.48
2022-11-24T22:00:30.157Z,20.63
2022-11-24T22:03:00.781Z,20.74
2022-11-24T22:05:29.156Z,20.82
2022-11-24T22:08:00.602Z,20.82
2022-11-24T22:10:29.055Z,20.83
2022-11-24T22:12:57.398Z,20.81
2022-11-24T22:15:28.431Z,20.79
2022-11-24T22:18:02.226Z,20.82
2022-11-24T22:20:30.619Z,20.89
2022-11-24T22:22:58.980Z,20.86
2022-11-24T22:25:27.652Z,20.83
2022-11-24T22:28:03.714Z,20.80
2022-11-24T22:30:34.989Z,20.73
2022-11-24T22:33:06.154Z,20.66
2022-11-24T22:35:36.406Z,20.65
2022-11-24T22:38:07.620Z,20.69
2022-11-24T22:40:35.906Z,20.77
2022-11-24T22:43:05.254Z,20.84
2022-11-24T22:45:36.138Z,20.85
2022-11-24T22:48:04.569Z,20.87
2022-11-24T22:50:32.899Z,20.92
2022-11-24T22:53:04.265Z,20.93
2022-11-24T22:55:32.548Z,20.89
2022-11-24T22:58:00.897Z,20.81
2022-11-24T23:00:29.171Z,20.71
2022-11-24T23:02:57.663Z,20.63
2022-11-24T23:05:26.014Z,20.54
2022-11-24T23:07:54.371Z,20.49
2022-11-24T23:10:24.198Z,20.43
2022-11-24T23:12:54.917Z,20.38
2022-11-24T23:15:30.991Z,20.29
2022-11-24T23:17:59.301Z,20.22
2022-11-24T23:20:27.720Z,20.16
2022-11-24T23:23:00.093Z,20.12
2022-11-24T23:25:28.419Z,20.06
2022-11-24T23:27:56.726Z,19.99
2022-11-24T23:30:25.081Z,19.91
2022-11-24T23:32:54.186Z,19.89
2022-11-24T23:35:24.794Z,19.88
2022-11-24T23:38:10.059Z,19.80
2022-11-24T23:40:38.425Z,19.77
2022-11-24T23:43:09.022Z,19.74
2022-11-24T23:45:37.385Z,19.73
2022-11-24T23:48:06.210Z,19.72
2022-11-24T23:50:38.487Z,19.65
2022-11-24T23:53:06.814Z,19.58
2022-11-24T23:55:35.086Z,19.57
2022-11-24T23:58:03.801Z,19.55
